Impacts METAR Board
IDs:

KBWI - Baltimore-Washington, MD, US

Updated at: 1000 UTC 30 Oct 2020
Potential Impact None Slight Moderate High
Time 29/22Z 29/23Z 30/00Z 30/01Z 30/02Z 30/03Z 30/04Z 30/05Z 30/06Z 30/07Z 30/08Z 30/09Z 30/10Z
Temp56 53 52 52 51 51 51 51 50 50 49 49 48
Dewpt53 49 49 49 49 48 48 47 47 47 46 46 45
Altim29.48 29.53 29.57 29.58 29.59 29.63 29.62 29.60 29.59 29.63 29.62 29.62 29.68
VIS7 10 2.5 3 3 5 10 10 6 4 9 10 5
CIG9 12 12 14 12 18 11 12 10 10 15 15 16
CoverOVCOVCOVCOVCOVCOVCOVCOVCOVCOVCOVCOVCOVC
FltCatIFRMVFRIFRMVFRMVFRMVFRMVFRMVFRMVFRMVFRMVFRMVFRMVFR
WX-----RA BR-RA BR-RA BRBR-----DZ BR-RA BR-RA---DZ BR
WDir31033010403603401030301020340330
WSpd11 9 6 7 6 5 7 10 8 8 5 7 9
WGst17 -- -- -- -- -- -- -- 20 -- -- -- 16
Raw hourly METARs
KBWI 292154Z 31011G17KT 7SM OVC009 13/12 A2948 RMK AO2 SLP980 T01330117
KBWI 292254Z 33009KT 10SM OVC012 12/09 A2953 RMK AO2 SLP999 T01170094
KBWI 292354Z 01006KT 2 1/2SM -RA BR BKN012 OVC018 11/09 A2957 RMK AO2 RAB34 SLP011 P0000 60032 T01110094 10161 20111 51055
KBWI 300054Z 04007KT 3SM -RA BR SCT007 BKN014 OVC031 11/09 A2958 RMK AO2 RAE27B46 SLP015 P0002 T01110094
KBWI 300154Z 36006KT 3SM -RA BR SCT007 OVC012 11/09 A2959 RMK AO2 RAE23B49 SLP020 P0002 T01060094
KBWI 300254Z 34005KT 5SM BR FEW012 OVC018 11/09 A2963 RMK AO2 RAE33B38E48 SLP032 P0001 60005 T01060089 53021
KBWI 300354Z 01007KT 10SM OVC011 11/09 A2962 RMK AO2 SLP029 T01060089
KBWI 300454Z 03010KT 10SM OVC012 11/08 A2960 RMK AO2 SLP023 T01060083 401610106
KBWI 300554Z 03008G20KT 6SM -DZ BR OVC010 10/08 A2959 RMK AO2 DZB53 SLP018 P0000 60005 T01000083 10111 20100 58014
KBWI 300654Z 01008KT 4SM -RA BR FEW004 BKN010 OVC016 10/08 A2963 RMK AO2 DZE04RAB22 SLP032 P0006 T01000083
KBWI 300754Z 02005KT 9SM -RA SCT008 BKN015 OVC085 09/08 A2962 RMK AO2 SLP028 SCT008 V BKN P0009 T00940078
KBWI 300854Z 34007KT 10SM OVC015 09/08 A2962 RMK AO2 RAE42 SLP029 P0001 60016 T00940078 56003
KBWI 300954Z 33009G16KT 5SM -DZ BR SCT008 OVC016 09/07 A2968 RMK AO2 DZB12 PRESRR SLP049 P0001 T00890072



Page loaded:  10:13 UTC  |   03:13 AM Pacific  |   04:13 AM Mountain  |   05:13 AM Central  |   06:13 AM Eastern

 

ADVISORIES

FORECASTS

FORECASTS

OBSERVATIONS

USER TOOLS

ABOUT US